sensor_id;sensor_type;location;lat;lon;timestamp;temperature;humidity
30893;DHT22;17595;50.884;4.346;2023-03-02T00:00:28;5.60;99.90
30893;DHT22;17595;50.884;4.346;2023-03-02T00:02:54;5.60;99.90
30893;DHT22;17595;50.884;4.346;2023-03-02T00:05:20;5.60;99.90
30893;DHT22;17595;50.884;4.346;2023-03-02T00:07:45;5.50;99.90
30893;DHT22;17595;50.884;4.346;2023-03-02T00:10:11;5.50;99.90
30893;DHT22;17595;50.884;4.346;2023-03-02T00:12:37;5.50;99.90
30893;DHT22;17595;50.884;4.346;2023-03-02T00:15:02;5.50;99.90
30893;DHT22;17595;50.884;4.346;2023-03-02T00:17:28;5.50;99.90
30893;DHT22;17595;50.884;4.346;2023-03-02T00:19:54;5.40;99.90
30893;DHT22;17595;50.884;4.346;2023-03-02T00:22:40;5.30;99.90
30893;DHT22;17595;50.884;4.346;2023-03-02T00:25:06;5.40;99.90
30893;DHT22;17595;50.884;4.346;2023-03-02T00:27:32;5.40;99.90
30893;DHT22;17595;50.884;4.346;2023-03-02T00:29:58;5.50;99.90
30893;DHT22;17595;50.884;4.346;2023-03-02T00:32:24;5.40;99.90
30893;DHT22;17595;50.884;4.346;2023-03-02T00:34:50;5.40;99.90
30893;DHT22;17595;50.884;4.346;2023-03-02T00:37:15;5.40;99.90
30893;DHT22;17595;50.884;4.346;2023-03-02T00:39:41;5.30;99.90
30893;DHT22;17595;50.884;4.346;2023-03-02T00:42:07;5.30;99.90
30893;DHT22;17595;50.884;4.346;2023-03-02T00:44:32;5.40;99.90
30893;DHT22;17595;50.884;4.346;2023-03-02T00:46:58;5.40;99.90
30893;DHT22;17595;50.884;4.346;2023-03-02T00:49:24;5.40;99.90
30893;DHT22;17595;50.884;4.346;2023-03-02T00:51:49;5.40;99.90
30893;DHT22;17595;50.884;4.346;2023-03-02T00:54:15;5.40;99.90
30893;DHT22;17595;50.884;4.346;2023-03-02T00:56:41;5.40;99.90
30893;DHT22;17595;50.884;4.346;2023-03-02T00:59:09;5.40;99.90
30893;DHT22;17595;50.884;4.346;2023-03-02T01:01:51;5.30;99.90
30893;DHT22;17595;50.884;4.346;2023-03-02T01:04:23;5.30;99.90
30893;DHT22;17595;50.884;4.346;2023-03-02T01:06:49;5.30;99.90
30893;DHT22;17595;50.884;4.346;2023-03-02T01:09:14;5.30;99.90
30893;DHT22;17595;50.884;4.346;2023-03-02T01:11:40;5.20;99.90
30893;DHT22;17595;50.884;4.346;2023-03-02T01:14:05;5.30;99.90
30893;DHT22;17595;50.884;4.346;2023-03-02T01:16:32;5.20;99.90
30893;DHT22;17595;50.884;4.346;2023-03-02T01:18:57;5.10;99.90
30893;DHT22;17595;50.884;4.346;2023-03-02T01:21:23;5.10;99.90
30893;DHT22;17595;50.884;4.346;2023-03-02T01:23:49;5.10;99.90
30893;DHT22;17595;50.884;4.346;2023-03-02T01:26:16;5.10;99.90
30893;DHT22;17595;50.884;4.346;2023-03-02T01:28:41;5.20;99.90
30893;DHT22;17595;50.884;4.346;2023-03-02T01:31:07;5.20;99.90
30893;DHT22;17595;50.884;4.346;2023-03-02T01:33:32;5.20;99.90
30893;DHT22;17595;50.884;4.346;2023-03-02T01:35:58;5.20;99.90
30893;DHT22;17595;50.884;4.346;2023-03-02T01:38:24;5.10;99.90
30893;DHT22;17595;50.884;4.346;2023-03-02T01:40:49;5.10;99.90
30893;DHT22;17595;50.884;4.346;2023-03-02T01:43:15;5.00;99.90
30893;DHT22;17595;50.884;4.346;2023-03-02T01:48:11;5.00;99.90
30893;DHT22;17595;50.884;4.346;2023-03-02T01:50:38;5.00;99.90
30893;DHT22;17595;50.884;4.346;2023-03-02T01:53:04;4.90;99.90
30893;DHT22;17595;50.884;4.346;2023-03-02T01:55:32;4.90;99.90
30893;DHT22;17595;50.884;4.346;2023-03-02T01:57:59;5.00;99.90
30893;DHT22;17595;50.884;4.346;2023-03-02T02:00:32;4.90;99.90
30893;DHT22;17595;50.884;4.346;2023-03-02T02:03:02;5.00;99.90
30893;DHT22;17595;50.884;4.346;2023-03-02T02:05:40;5.00;99.90
30893;DHT22;17595;50.884;4.346;2023-03-02T02:08:07;4.90;99.90
30893;DHT22;17595;50.884;4.346;2023-03-02T02:10:33;4.90;99.90
30893;DHT22;17595;50.884;4.346;2023-03-02T02:12:59;4.90;99.90
30893;DHT22;17595;50.884;4.346;2023-03-02T02:15:25;4.90;99.90
30893;DHT22;17595;50.884;4.346;2023-03-02T02:17:51;4.90;99.90
30893;DHT22;17595;50.884;4.346;2023-03-02T02:20:40;5.00;99.90
30893;DHT22;17595;50.884;4.346;2023-03-02T02:23:22;5.00;99.90
30893;DHT22;17595;50.884;4.346;2023-03-02T02:33:33;5.00;99.90
30893;DHT22;17595;50.884;4.346;2023-03-02T02:36:07;4.90;99.90
30893;DHT22;17595;50.884;4.346;2023-03-02T02:38:35;4.80;99.90
30893;DHT22;17595;50.884;4.346;2023-03-02T02:41:05;4.80;99.90
30893;DHT22;17595;50.884;4.346;2023-03-02T02:43:31;4.90;99.90
30893;DHT22;17595;50.884;4.346;2023-03-02T02:45:58;4.90;99.90
30893;DHT22;17595;50.884;4.346;2023-03-02T02:48:26;4.80;99.90
30893;DHT22;17595;50.884;4.346;2023-03-02T02:50:56;4.80;99.90
30893;DHT22;17595;50.884;4.346;2023-03-02T02:53:33;4.70;99.90
30893;DHT22;17595;50.884;4.346;2023-03-02T02:56:00;4.70;99.90
30893;DHT22;17595;50.884;4.346;2023-03-02T02:58:38;4.70;99.90
30893;DHT22;17595;50.884;4.346;2023-03-02T03:01:05;4.70;99.90
30893;DHT22;17595;50.884;4.346;2023-03-02T03:03:36;4.70;99.90
30893;DHT22;17595;50.884;4.346;2023-03-02T03:06:13;4.70;99.90
30893;DHT22;17595;50.884;4.346;2023-03-02T03:11:15;4.70;99.90
30893;DHT22;17595;50.884;4.346;2023-03-02T03:13:44;4.80;99.90
30893;DHT22;17595;50.884;4.346;2023-03-02T03:16:14;4.80;99.90
30893;DHT22;17595;50.884;4.346;2023-03-02T03:18:44;4.70;99.90
30893;DHT22;17595;50.884;4.346;2023-03-02T03:21:11;4.70;99.90
30893;DHT22;17595;50.884;4.346;2023-03-02T03:23:37;4.70;99.90
30893;DHT22;17595;50.884;4.346;2023-03-02T03:26:06;4.70;99.90
30893;DHT22;17595;50.884;4.346;2023-03-02T03:28:32;4.70;99.90
30893;DHT22;17595;50.884;4.346;2023-03-02T03:30:58;4.70;99.90
30893;DHT22;17595;50.884;4.346;2023-03-02T03:33:24;4.70;99.90
30893;DHT22;17595;50.884;4.346;2023-03-02T03:35:49;4.80;99.90
30893;DHT22;17595;50.884;4.346;2023-03-02T03:38:16;4.60;99.90
30893;DHT22;17595;50.884;4.346;2023-03-02T03:40:41;4.70;99.90
30893;DHT22;17595;50.884;4.346;2023-03-02T03:43:08;4.70;99.90
30893;DHT22;17595;50.884;4.346;2023-03-02T03:45:34;4.70;99.90
30893;DHT22;17595;50.884;4.346;2023-03-02T03:47:59;4.60;99.90
30893;DHT22;17595;50.884;4.346;2023-03-02T03:50:25;4.60;99.90
30893;DHT22;17595;50.884;4.346;2023-03-02T03:52:50;4.60;99.90
30893;DHT22;17595;50.884;4.346;2023-03-02T03:55:16;4.60;99.90
30893;DHT22;17595;50.884;4.346;2023-03-02T03:57:42;4.60;99.90
30893;DHT22;17595;50.884;4.346;2023-03-02T04:00:10;4.70;99.90
30893;DHT22;17595;50.884;4.346;2023-03-02T04:02:39;4.70;99.90
30893;DHT22;17595;50.884;4.346;2023-03-02T04:05:05;4.60;99.90
30893;DHT22;17595;50.884;4.346;2023-03-02T04:07:35;4.60;99.90
30893;DHT22;17595;50.884;4.346;2023-03-02T04:10:02;4.50;99.90
30893;DHT22;17595;50.884;4.346;2023-03-02T04:12:36;4.50;99.90
30893;DHT22;17595;50.884;4.346;2023-03-02T04:15:03;4.50;99.90
30893;DHT22;17595;50.884;4.346;2023-03-02T04:17:29;4.40;99.90
30893;DHT22;17595;50.884;4.346;2023-03-02T04:19:55;4.30;99.90
30893;DHT22;17595;50.884;4.346;2023-03-02T04:22:20;4.30;99.90
30893;DHT22;17595;50.884;4.346;2023-03-02T04:24:47;4.30;99.90
30893;DHT22;17595;50.884;4.346;2023-03-02T04:27:13;4.40;99.90
30893;DHT22;17595;50.884;4.346;2023-03-02T04:29:39;4.40;99.90
30893;DHT22;17595;50.884;4.346;2023-03-02T04:32:05;4.40;99.90
30893;DHT22;17595;50.884;4.346;2023-03-02T04:34:31;4.40;99.90
30893;DHT22;17595;50.884;4.346;2023-03-02T04:36:57;4.40;99.90
30893;DHT22;17595;50.884;4.346;2023-03-02T04:39:23;4.40;99.90
30893;DHT22;17595;50.884;4.346;2023-03-02T04:41:49;4.40;99.90
30893;DHT22;17595;50.884;4.346;2023-03-02T04:44:16;4.40;99.90
30893;DHT22;17595;50.884;4.346;2023-03-02T04:46:42;4.30;99.90
30893;DHT22;17595;50.884;4.346;2023-03-02T04:49:08;4.30;99.90
30893;DHT22;17595;50.884;4.346;2023-03-02T04:51:37;4.30;99.90
30893;DHT22;17595;50.884;4.346;2023-03-02T04:54:06;4.20;99.90
30893;DHT22;17595;50.884;4.346;2023-03-02T04:56:32;4.30;99.90
30893;DHT22;17595;50.884;4.346;2023-03-02T04:58:58;4.30;99.90
30893;DHT22;17595;50.884;4.346;2023-03-02T05:01:25;4.30;99.90
30893;DHT22;17595;50.884;4.346;2023-03-02T05:03:51;4.30;99.90
30893;DHT22;17595;50.884;4.346;2023-03-02T05:06:17;4.30;99.90
30893;DHT22;17595;50.884;4.346;2023-03-02T05:08:43;4.40;99.90
30893;DHT22;17595;50.884;4.346;2023-03-02T05:11:11;4.40;99.90
30893;DHT22;17595;50.884;4.346;2023-03-02T05:13:49;4.30;99.90
30893;DHT22;17595;50.884;4.346;2023-03-02T05:16:15;4.30;99.90
30893;DHT22;17595;50.884;4.346;2023-03-02T05:18:40;4.20;99.90
30893;DHT22;17595;50.884;4.346;2023-03-02T05:21:06;4.20;99.90
30893;DHT22;17595;50.884;4.346;2023-03-02T05:23:31;4.20;99.90
30893;DHT22;17595;50.884;4.346;2023-03-02T05:25:58;4.20;99.90
30893;DHT22;17595;50.884;4.346;2023-03-02T05:28:24;4.20;99.90
30893;DHT22;17595;50.884;4.346;2023-03-02T05:30:51;4.10;99.90
30893;DHT22;17595;50.884;4.346;2023-03-02T05:33:17;4.10;99.90
30893;DHT22;17595;50.884;4.346;2023-03-02T05:35:43;4.00;99.90
30893;DHT22;17595;50.884;4.346;2023-03-02T05:38:10;4.00;99.90
30893;DHT22;17595;50.884;4.346;2023-03-02T05:40:37;4.00;99.90
30893;DHT22;17595;50.884;4.346;2023-03-02T05:43:02;4.00;99.90
30893;DHT22;17595;50.884;4.346;2023-03-02T05:45:34;4.10;99.90
30893;DHT22;17595;50.884;4.346;2023-03-02T05:48:01;4.10;99.90
30893;DHT22;17595;50.884;4.346;2023-03-02T05:50:27;4.10;99.90
30893;DHT22;17595;50.884;4.346;2023-03-02T05:52:53;4.10;99.90
30893;DHT22;17595;50.884;4.346;2023-03-02T05:55:19;4.00;99.90
30893;DHT22;17595;50.884;4.346;2023-03-02T05:57:45;4.00;99.90
30893;DHT22;17595;50.884;4.346;2023-03-02T06:00:13;4.00;99.90
30893;DHT22;17595;50.884;4.346;2023-03-02T06:02:40;4.10;99.90
30893;DHT22;17595;50.884;4.346;2023-03-02T06:05:08;4.10;99.90
30893;DHT22;17595;50.884;4.346;2023-03-02T06:07:33;4.20;99.90
30893;DHT22;17595;50.884;4.346;2023-03-02T06:09:59;4.20;99.90
30893;DHT22;17595;50.884;4.346;2023-03-02T06:12:25;4.20;99.90
30893;DHT22;17595;50.884;4.346;2023-03-02T06:14:50;4.20;99.90
30893;DHT22;17595;50.884;4.346;2023-03-02T06:17:16;4.20;99.90
30893;DHT22;17595;50.884;4.346;2023-03-02T06:19:42;4.00;99.90
30893;DHT22;17595;50.884;4.346;2023-03-02T06:22:07;3.90;99.90
30893;DHT22;17595;50.884;4.346;2023-03-02T06:24:33;3.90;99.90
30893;DHT22;17595;50.884;4.346;2023-03-02T06:26:58;3.90;99.90
30893;DHT22;17595;50.884;4.346;2023-03-02T06:29:24;3.80;99.90
30893;DHT22;17595;50.884;4.346;2023-03-02T06:31:50;3.80;99.90
30893;DHT22;17595;50.884;4.346;2023-03-02T06:34:15;3.90;99.90
30893;DHT22;17595;50.884;4.346;2023-03-02T06:36:41;3.90;99.90
30893;DHT22;17595;50.884;4.346;2023-03-02T06:39:07;3.90;99.90
30893;DHT22;17595;50.884;4.346;2023-03-02T06:41:44;3.90;99.90
30893;DHT22;17595;50.884;4.346;2023-03-02T06:44:10;4.00;99.90
30893;DHT22;17595;50.884;4.346;2023-03-02T06:46:36;4.10;99.90
30893;DHT22;17595;50.884;4.346;2023-03-02T06:49:02;4.10;99.90
30893;DHT22;17595;50.884;4.346;2023-03-02T06:51:28;4.10;99.90
30893;DHT22;17595;50.884;4.346;2023-03-02T06:53:54;4.00;99.90
30893;DHT22;17595;50.884;4.346;2023-03-02T06:56:19;4.00;99.90
30893;DHT22;17595;50.884;4.346;2023-03-02T06:58:45;3.90;99.90
30893;DHT22;17595;50.884;4.346;2023-03-02T07:01:10;4.00;99.90
30893;DHT22;17595;50.884;4.346;2023-03-02T07:03:36;4.00;99.90
30893;DHT22;17595;50.884;4.346;2023-03-02T07:06:02;4.10;99.90
30893;DHT22;17595;50.884;4.346;2023-03-02T07:08:28;4.10;99.90
30893;DHT22;17595;50.884;4.346;2023-03-02T07:10:54;4.10;99.90
30893;DHT22;17595;50.884;4.346;2023-03-02T07:13:19;4.20;99.90
30893;DHT22;17595;50.884;4.346;2023-03-02T07:15:45;4.20;99.90
30893;DHT22;17595;50.884;4.346;2023-03-02T07:18:11;4.20;99.90
30893;DHT22;17595;50.884;4.346;2023-03-02T07:20:36;4.20;99.90
30893;DHT22;17595;50.884;4.346;2023-03-02T07:23:03;4.20;99.90
30893;DHT22;17595;50.884;4.346;2023-03-02T07:25:29;4.20;99.90
30893;DHT22;17595;50.884;4.346;2023-03-02T07:27:55;4.00;99.90
30893;DHT22;17595;50.884;4.346;2023-03-02T07:30:20;4.00;99.90
30893;DHT22;17595;50.884;4.346;2023-03-02T07:32:49;4.10;99.90
30893;DHT22;17595;50.884;4.346;2023-03-02T07:35:14;4.20;99.90
30893;DHT22;17595;50.884;4.346;2023-03-02T07:37:41;4.30;99.90
30893;DHT22;17595;50.884;4.346;2023-03-02T07:40:09;4.30;99.90
30893;DHT22;17595;50.884;4.346;2023-03-02T07:42:36;4.30;99.90
30893;DHT22;17595;50.884;4.346;2023-03-02T07:45:02;4.40;99.90
30893;DHT22;17595;50.884;4.346;2023-03-02T07:47:29;4.40;99.90
30893;DHT22;17595;50.884;4.346;2023-03-02T07:49:54;4.50;99.90
30893;DHT22;17595;50.884;4.346;2023-03-02T07:52:20;4.60;99.90
30893;DHT22;17595;50.884;4.346;2023-03-02T07:54:45;4.50;99.90
30893;DHT22;17595;50.884;4.346;2023-03-02T07:57:11;4.60;99.90
30893;DHT22;17595;50.884;4.346;2023-03-02T07:59:43;4.60;99.90
30893;DHT22;17595;50.884;4.346;2023-03-02T08:02:17;4.60;99.90
30893;DHT22;17595;50.884;4.346;2023-03-02T08:04:44;4.60;99.90
30893;DHT22;17595;50.884;4.346;2023-03-02T08:07:10;4.50;99.90
30893;DHT22;17595;50.884;4.346;2023-03-02T08:09:37;4.60;99.90
30893;DHT22;17595;50.884;4.346;2023-03-02T08:12:03;4.60;99.90
30893;DHT22;17595;50.884;4.346;2023-03-02T08:14:30;4.70;99.90
30893;DHT22;17595;50.884;4.346;2023-03-02T08:16:55;4.80;99.90
30893;DHT22;17595;50.884;4.346;2023-03-02T08:19:21;4.70;99.90
30893;DHT22;17595;50.884;4.346;2023-03-02T08:21:47;4.80;99.90
30893;DHT22;17595;50.884;4.346;2023-03-02T08:24:12;4.90;99.90
30893;DHT22;17595;50.884;4.346;2023-03-02T08:26:38;4.90;99.90
30893;DHT22;17595;50.884;4.346;2023-03-02T08:29:05;4.90;99.90
30893;DHT22;17595;50.884;4.346;2023-03-02T08:31:32;5.00;99.90
30893;DHT22;17595;50.884;4.346;2023-03-02T08:33:57;5.00;99.90
30893;DHT22;17595;50.884;4.346;2023-03-02T08:36:24;5.00;99.90
30893;DHT22;17595;50.884;4.346;2023-03-02T08:38:51;5.00;99.90
30893;DHT22;17595;50.884;4.346;2023-03-02T08:41:18;5.10;99.90
30893;DHT22;17595;50.884;4.346;2023-03-02T08:43:45;5.10;99.90
30893;DHT22;17595;50.884;4.346;2023-03-02T08:46:12;5.20;99.90
30893;DHT22;17595;50.884;4.346;2023-03-02T08:48:37;5.30;99.90
30893;DHT22;17595;50.884;4.346;2023-03-02T08:51:09;5.30;99.90
30893;DHT22;17595;50.884;4.346;2023-03-02T08:53:38;5.40;99.90
30893;DHT22;17595;50.884;4.346;2023-03-02T08:56:04;5.40;99.90
30893;DHT22;17595;50.884;4.346;2023-03-02T08:58:33;5.40;99.90
30893;DHT22;17595;50.884;4.346;2023-03-02T09:00:58;5.40;99.90
30893;DHT22;17595;50.884;4.346;2023-03-02T09:03:24;5.40;99.90
30893;DHT22;17595;50.884;4.346;2023-03-02T09:05:49;5.50;99.90
30893;DHT22;17595;50.884;4.346;2023-03-02T09:08:15;5.60;99.90
30893;DHT22;17595;50.884;4.346;2023-03-02T09:10:41;5.60;99.90
30893;DHT22;17595;50.884;4.346;2023-03-02T09:13:06;5.70;99.90
30893;DHT22;17595;50.884;4.346;2023-03-02T09:15:32;5.70;99.90
30893;DHT22;17595;50.884;4.346;2023-03-02T09:17:57;5.80;99.90
30893;DHT22;17595;50.884;4.346;2023-03-02T09:20:23;5.80;99.90
30893;DHT22;17595;50.884;4.346;2023-03-02T09:22:49;5.80;99.90
30893;DHT22;17595;50.884;4.346;2023-03-02T09:25:16;5.90;99.90
30893;DHT22;17595;50.884;4.346;2023-03-02T09:27:43;5.80;99.90
30893;DHT22;17595;50.884;4.346;2023-03-02T09:30:10;5.90;99.90
30893;DHT22;17595;50.884;4.346;2023-03-02T09:32:36;6.20;99.90
30893;DHT22;17595;50.884;4.346;2023-03-02T09:35:02;6.20;99.90
30893;DHT22;17595;50.884;4.346;2023-03-02T09:37:28;6.20;99.90
30893;DHT22;17595;50.884;4.346;2023-03-02T09:39:53;6.20;99.90
30893;DHT22;17595;50.884;4.346;2023-03-02T09:42:38;6.20;99.90
30893;DHT22;17595;50.884;4.346;2023-03-02T09:47:54;6.20;99.90
30893;DHT22;17595;50.884;4.346;2023-03-02T09:55:56;6.00;99.90
30893;DHT22;17595;50.884;4.346;2023-03-02T09:58:29;5.90;99.90
30893;DHT22;17595;50.884;4.346;2023-03-02T10:00:58;5.90;99.90
30893;DHT22;17595;50.884;4.346;2023-03-02T10:04:14;6.10;99.90
30893;DHT22;17595;50.884;4.346;2023-03-02T10:06:18;6.20;99.90
30893;DHT22;17595;50.884;4.346;2023-03-02T10:08:44;6.00;99.90
30893;DHT22;17595;50.884;4.346;2023-03-02T10:17:02;6.40;99.90
30893;DHT22;17595;50.884;4.346;2023-03-02T10:19:43;6.50;99.90
30893;DHT22;17595;50.884;4.346;2023-03-02T10:22:22;6.50;99.90
30893;DHT22;17595;50.884;4.346;2023-03-02T10:27:43;6.80;99.90
30893;DHT22;17595;50.884;4.346;2023-03-02T10:30:30;6.90;99.90
30893;DHT22;17595;50.884;4.346;2023-03-02T10:33:02;7.00;99.90
30893;DHT22;17595;50.884;4.346;2023-03-02T10:35:29;6.90;99.90
30893;DHT22;17595;50.884;4.346;2023-03-02T10:38:12;7.00;99.90
30893;DHT22;17595;50.884;4.346;2023-03-02T10:40:55;7.10;99.90
30893;DHT22;17595;50.884;4.346;2023-03-02T10:43:39;7.10;99.90
30893;DHT22;17595;50.884;4.346;2023-03-02T10:46:08;7.10;99.90
30893;DHT22;17595;50.884;4.346;2023-03-02T10:48:56;7.20;99.90
30893;DHT22;17595;50.884;4.346;2023-03-02T10:51:31;7.20;99.90
30893;DHT22;17595;50.884;4.346;2023-03-02T10:54:04;7.40;99.90
30893;DHT22;17595;50.884;4.346;2023-03-02T10:56:29;7.40;99.90
30893;DHT22;17595;50.884;4.346;2023-03-02T10:58:56;7.50;99.90
30893;DHT22;17595;50.884;4.346;2023-03-02T11:01:30;7.50;99.90
30893;DHT22;17595;50.884;4.346;2023-03-02T11:03:58;7.60;99.90
30893;DHT22;17595;50.884;4.346;2023-03-02T11:06:25;7.60;99.90
30893;DHT22;17595;50.884;4.346;2023-03-02T11:08:59;7.60;99.90
30893;DHT22;17595;50.884;4.346;2023-03-02T11:11:25;7.70;99.90
30893;DHT22;17595;50.884;4.346;2023-03-02T11:13:50;7.70;99.90
30893;DHT22;17595;50.884;4.346;2023-03-02T11:26:43;7.80;99.90
30893;DHT22;17595;50.884;4.346;2023-03-02T11:29:26;7.80;99.90
30893;DHT22;17595;50.884;4.346;2023-03-02T11:34:35;7.70;99.90
30893;DHT22;17595;50.884;4.346;2023-03-02T11:37:38;7.60;99.90
30893;DHT22;17595;50.884;4.346;2023-03-02T11:42:46;7.70;99.90
30893;DHT22;17595;50.884;4.346;2023-03-02T11:47:44;7.70;99.90
30893;DHT22;17595;50.884;4.346;2023-03-02T11:50:13;7.80;99.90
30893;DHT22;17595;50.884;4.346;2023-03-02T11:52:45;8.00;99.90
30893;DHT22;17595;50.884;4.346;2023-03-02T11:55:15;8.10;99.90
30893;DHT22;17595;50.884;4.346;2023-03-02T11:57:45;8.10;99.90
30893;DHT22;17595;50.884;4.346;2023-03-02T12:00:26;8.10;99.90
30893;DHT22;17595;50.884;4.346;2023-03-02T12:05:27;7.90;99.90
30893;DHT22;17595;50.884;4.346;2023-03-02T12:08:05;7.90;99.90
30893;DHT22;17595;50.884;4.346;2023-03-02T12:10:35;8.10;99.90
30893;DHT22;17595;50.884;4.346;2023-03-02T12:13:13;8.20;99.90
30893;DHT22;17595;50.884;4.346;2023-03-02T12:15:40;8.10;99.90
30893;DHT22;17595;50.884;4.346;2023-03-02T12:18:27;8.20;99.90
30893;DHT22;17595;50.884;4.346;2023-03-02T12:23:31;8.30;99.90
30893;DHT22;17595;50.884;4.346;2023-03-02T12:34:38;8.30;99.90
30893;DHT22;17595;50.884;4.346;2023-03-02T12:37:31;8.50;99.90
30893;DHT22;17595;50.884;4.346;2023-03-02T12:47:55;8.50;99.90
30893;DHT22;17595;50.884;4.346;2023-03-02T12:50:25;8.60;99.90
30893;DHT22;17595;50.884;4.346;2023-03-02T12:53:05;8.60;99.90
30893;DHT22;17595;50.884;4.346;2023-03-02T12:55:31;8.50;99.90
30893;DHT22;17595;50.884;4.346;2023-03-02T12:57:59;8.60;99.90
30893;DHT22;17595;50.884;4.346;2023-03-02T13:00:30;8.70;99.90
30893;DHT22;17595;50.884;4.346;2023-03-02T13:02:57;8.60;99.90
30893;DHT22;17595;50.884;4.346;2023-03-02T13:05:27;8.60;99.90
30893;DHT22;17595;50.884;4.346;2023-03-02T13:07:59;8.70;99.90
30893;DHT22;17595;50.884;4.346;2023-03-02T13:13:41;8.70;99.90
30893;DHT22;17595;50.884;4.346;2023-03-02T13:16:20;8.90;99.90
30893;DHT22;17595;50.884;4.346;2023-03-02T13:18:46;8.90;99.90
30893;DHT22;17595;50.884;4.346;2023-03-02T13:21:15;9.00;99.90
30893;DHT22;17595;50.884;4.346;2023-03-02T13:23:48;8.90;99.90
30893;DHT22;17595;50.884;4.346;2023-03-02T13:26:27;8.80;99.90
30893;DHT22;17595;50.884;4.346;2023-03-02T13:31:26;8.90;99.90
30893;DHT22;17595;50.884;4.346;2023-03-02T13:33:52;9.00;99.90
30893;DHT22;17595;50.884;4.346;2023-03-02T13:36:20;8.90;99.90
30893;DHT22;17595;50.884;4.346;2023-03-02T13:38:49;9.10;99.90
30893;DHT22;17595;50.884;4.346;2023-03-02T13:41:22;9.20;99.90
30893;DHT22;17595;50.884;4.346;2023-03-02T13:43:48;9.40;99.90
30893;DHT22;17595;50.884;4.346;2023-03-02T13:49:00;9.40;99.90
30893;DHT22;17595;50.884;4.346;2023-03-02T13:51:29;9.30;99.90
30893;DHT22;17595;50.884;4.346;2023-03-02T13:53:59;9.40;99.90
30893;DHT22;17595;50.884;4.346;2023-03-02T13:56:36;9.60;99.90
30893;DHT22;17595;50.884;4.346;2023-03-02T13:59:03;9.60;99.90
30893;DHT22;17595;50.884;4.346;2023-03-02T14:01:29;9.60;99.90
30893;DHT22;17595;50.884;4.346;2023-03-02T14:03:55;9.70;99.90
30893;DHT22;17595;50.884;4.346;2023-03-02T14:06:21;9.70;99.90
30893;DHT22;17595;50.884;4.346;2023-03-02T14:08:46;9.80;99.90
30893;DHT22;17595;50.884;4.346;2023-03-02T14:11:16;9.80;99.90
30893;DHT22;17595;50.884;4.346;2023-03-02T14:13:43;9.80;99.90
30893;DHT22;17595;50.884;4.346;2023-03-02T14:16:13;9.80;99.90
30893;DHT22;17595;50.884;4.346;2023-03-02T14:18:45;9.80;99.90
30893;DHT22;17595;50.884;4.346;2023-03-02T14:21:13;9.70;99.90
30893;DHT22;17595;50.884;4.346;2023-03-02T14:23:39;9.70;99.90
30893;DHT22;17595;50.884;4.346;2023-03-02T14:28:42;9.80;99.90
30893;DHT22;17595;50.884;4.346;2023-03-02T14:31:08;9.90;99.90
30893;DHT22;17595;50.884;4.346;2023-03-02T14:33:34;9.90;99.90
30893;DHT22;17595;50.884;4.346;2023-03-02T14:36:01;10.00;99.90
30893;DHT22;17595;50.884;4.346;2023-03-02T14:38:28;10.00;99.90
30893;DHT22;17595;50.884;4.346;2023-03-02T14:40:54;10.00;99.90
30893;DHT22;17595;50.884;4.346;2023-03-02T14:43:20;10.10;99.90
30893;DHT22;17595;50.884;4.346;2023-03-02T14:45:47;10.00;99.90
30893;DHT22;17595;50.884;4.346;2023-03-02T14:48:13;10.10;99.90
30893;DHT22;17595;50.884;4.346;2023-03-02T14:50:41;9.90;99.90
30893;DHT22;17595;50.884;4.346;2023-03-02T14:53:09;9.90;99.90
30893;DHT22;17595;50.884;4.346;2023-03-02T14:55:39;9.90;99.90
30893;DHT22;17595;50.884;4.346;2023-03-02T14:58:31;10.10;99.90
30893;DHT22;17595;50.884;4.346;2023-03-02T15:00:58;9.90;99.90
30893;DHT22;17595;50.884;4.346;2023-03-02T15:03:23;9.90;99.90
30893;DHT22;17595;50.884;4.346;2023-03-02T15:05:53;9.80;99.90
30893;DHT22;17595;50.884;4.346;2023-03-02T15:08:20;10.00;99.90
30893;DHT22;17595;50.884;4.346;2023-03-02T15:10:46;9.90;99.90
30893;DHT22;17595;50.884;4.346;2023-03-02T15:13:13;10.00;99.90
30893;DHT22;17595;50.884;4.346;2023-03-02T15:15:40;10.00;99.90
30893;DHT22;17595;50.884;4.346;2023-03-02T15:18:06;10.00;99.90
30893;DHT22;17595;50.884;4.346;2023-03-02T15:20:32;9.90;99.90
30893;DHT22;17595;50.884;4.346;2023-03-02T15:22:58;9.80;99.90
30893;DHT22;17595;50.884;4.346;2023-03-02T15:25:24;9.90;99.90
30893;DHT22;17595;50.884;4.346;2023-03-02T15:27:51;10.00;99.90
30893;DHT22;17595;50.884;4.346;2023-03-02T15:30:18;10.10;99.90
30893;DHT22;17595;50.884;4.346;2023-03-02T15:32:43;10.10;99.90
30893;DHT22;17595;50.884;4.346;2023-03-02T15:35:09;10.10;99.90
30893;DHT22;17595;50.884;4.346;2023-03-02T15:37:36;10.10;99.90
30893;DHT22;17595;50.884;4.346;2023-03-02T15:40:03;10.20;99.90
30893;DHT22;17595;50.884;4.346;2023-03-02T15:42:28;10.30;99.90
30893;DHT22;17595;50.884;4.346;2023-03-02T15:44:54;10.10;99.90
30893;DHT22;17595;50.884;4.346;2023-03-02T15:47:20;10.00;99.90
30893;DHT22;17595;50.884;4.346;2023-03-02T15:49:45;10.20;99.90
30893;DHT22;17595;50.884;4.346;2023-03-02T15:52:11;10.20;99.90
30893;DHT22;17595;50.884;4.346;2023-03-02T15:54:37;10.20;99.90
30893;DHT22;17595;50.884;4.346;2023-03-02T15:57:02;10.20;99.90
30893;DHT22;17595;50.884;4.346;2023-03-02T15:59:29;10.30;99.90
30893;DHT22;17595;50.884;4.346;2023-03-02T16:01:56;10.30;99.90
30893;DHT22;17595;50.884;4.346;2023-03-02T16:04:28;10.30;99.90
30893;DHT22;17595;50.884;4.346;2023-03-02T16:06:54;10.30;99.90
30893;DHT22;17595;50.884;4.346;2023-03-02T16:09:24;10.30;99.90
30893;DHT22;17595;50.884;4.346;2023-03-02T16:11:49;10.20;99.90
30893;DHT22;17595;50.884;4.346;2023-03-02T16:14:15;10.20;99.90
30893;DHT22;17595;50.884;4.346;2023-03-02T16:16:42;10.30;99.90
30893;DHT22;17595;50.884;4.346;2023-03-02T16:19:16;10.20;99.90
30893;DHT22;17595;50.884;4.346;2023-03-02T16:21:41;10.30;99.90
30893;DHT22;17595;50.884;4.346;2023-03-02T16:24:07;10.30;99.90
30893;DHT22;17595;50.884;4.346;2023-03-02T16:26:35;10.20;99.90
30893;DHT22;17595;50.884;4.346;2023-03-02T16:29:02;10.20;99.90
30893;DHT22;17595;50.884;4.346;2023-03-02T16:31:28;10.20;99.90
30893;DHT22;17595;50.884;4.346;2023-03-02T16:33:57;10.30;99.90
30893;DHT22;17595;50.884;4.346;2023-03-02T16:36:24;10.30;99.90
30893;DHT22;17595;50.884;4.346;2023-03-02T16:38:50;10.30;99.90
30893;DHT22;17595;50.884;4.346;2023-03-02T16:41:19;10.40;99.90
30893;DHT22;17595;50.884;4.346;2023-03-02T16:43:52;10.40;99.90
30893;DHT22;17595;50.884;4.346;2023-03-02T16:46:18;10.30;99.90
30893;DHT22;17595;50.884;4.346;2023-03-02T16:48:44;10.20;99.90
30893;DHT22;17595;50.884;4.346;2023-03-02T16:51:11;10.20;99.90
30893;DHT22;17595;50.884;4.346;2023-03-02T16:53:37;10.20;99.90
30893;DHT22;17595;50.884;4.346;2023-03-02T16:56:03;10.10;99.90
30893;DHT22;17595;50.884;4.346;2023-03-02T16:58:28;10.00;99.90
30893;DHT22;17595;50.884;4.346;2023-03-02T17:00:54;10.00;99.90
30893;DHT22;17595;50.884;4.346;2023-03-02T17:03:21;9.90;99.90
30893;DHT22;17595;50.884;4.346;2023-03-02T17:05:46;10.00;99.90
30893;DHT22;17595;50.884;4.346;2023-03-02T17:08:14;9.90;99.90
30893;DHT22;17595;50.884;4.346;2023-03-02T17:10:40;10.00;99.90